Cranberry, North Carolina
Current Conditions -  °F | °C
As of 2:15 PM on Friday 21 Nov 2014 (Local Time) from KTNB Reporting Station
Clear Clear  
Wind Chill: 33°   Ceiling: Unl
Heat Index: 41°   Visibility: 10mi
Dew Point: -1°   Wind: 13mph
Humidity: 18%   Direction: 280°W
Pressure: 30.35"   Gusts: 18mph
Location:  36.1731°N, 81.9572°W
Report Text: KTNB 211915Z AUTO 28011G16KT 10SM CLR 05/M18 A3035 RMK AO2 T00481182
Loading
Personal Weather Stations






























Interactive Weather Map New forecast layout! Learn more

10-Day Weather Forecast

Advertisements
Track Severe Weather on mobile